sensor_id;sensor_type;location;lat;lon;timestamp;P1;durP1;ratioP1;P2;durP2;ratioP2
51525;SDS011;37611;51.794;21.590;2023-08-21T00:02:21;26.80;;;24.40;;
51525;SDS011;37611;51.794;21.590;2023-08-21T00:06:23;26.40;;;24.20;;
51525;SDS011;37611;51.794;21.590;2023-08-21T00:10:25;26.30;;;24.20;;
51525;SDS011;37611;51.794;21.590;2023-08-21T00:14:26;26.90;;;24.30;;
51525;SDS011;37611;51.794;21.590;2023-08-21T00:18:28;27.30;;;25.00;;
51525;SDS011;37611;51.794;21.590;2023-08-21T00:22:30;26.80;;;24.50;;
51525;SDS011;37611;51.794;21.590;2023-08-21T04:07:34;23.60;;;21.40;;
51525;SDS011;37611;51.794;21.590;2023-08-21T04:17:19;22.30;;;20.50;;
51525;SDS011;37611;51.794;21.590;2023-08-21T04:57:26;20.10;;;18.60;;
51525;SDS011;37611;51.794;21.590;2023-08-21T06:10:09;18.80;;;15.90;;
51525;SDS011;37611;51.794;21.590;2023-08-21T06:18:48;17.20;;;15.60;;
51525;SDS011;37611;51.794;21.590;2023-08-21T06:27:55;17.80;;;16.30;;
51525;SDS011;37611;51.794;21.590;2023-08-21T06:55:01;18.60;;;15.80;;
51525;SDS011;37611;51.794;21.590;2023-08-21T06:59:06;17.70;;;16.10;;
51525;SDS011;37611;51.794;21.590;2023-08-21T07:03:09;15.70;;;14.30;;
51525;SDS011;37611;51.794;21.590;2023-08-21T07:07:21;16.10;;;14.20;;
51525;SDS011;37611;51.794;21.590;2023-08-21T07:11:32;15.60;;;14.00;;
51525;SDS011;37611;51.794;21.590;2023-08-21T07:15:34;19.20;;;17.00;;
51525;SDS011;37611;51.794;21.590;2023-08-21T07:19:36;21.90;;;15.90;;
51525;SDS011;37611;51.794;21.590;2023-08-21T07:23:41;16.10;;;14.60;;
51525;SDS011;37611;51.794;21.590;2023-08-21T07:27:52;15.50;;;14.00;;
51525;SDS011;37611;51.794;21.590;2023-08-21T07:32:33;14.50;;;13.20;;
51525;SDS011;37611;51.794;21.590;2023-08-21T07:36:55;15.20;;;13.70;;
51525;SDS011;37611;51.794;21.590;2023-08-21T07:45:46;15.20;;;13.70;;
51525;SDS011;37611;51.794;21.590;2023-08-21T07:54:30;17.60;;;16.00;;
51525;SDS011;37611;51.794;21.590;2023-08-21T08:42:35;16.70;;;15.30;;
51525;SDS011;37611;51.794;21.590;2023-08-21T09:10:26;12.40;;;11.20;;
51525;SDS011;37611;51.794;21.590;2023-08-21T09:14:29;12.00;;;11.00;;
51525;SDS011;37611;51.794;21.590;2023-08-21T09:18:35;10.20;;;9.30;;
51525;SDS011;37611;51.794;21.590;2023-08-21T09:23:12;10.10;;;9.20;;
51525;SDS011;37611;51.794;21.590;2023-08-21T09:32:18;9.70;;;8.90;;
51525;SDS011;37611;51.794;21.590;2023-08-21T09:41:45;8.60;;;7.90;;
51525;SDS011;37611;51.794;21.590;2023-08-21T09:46:23;9.70;;;8.40;;
51525;SDS011;37611;51.794;21.590;2023-08-21T09:50:40;9.70;;;7.90;;
51525;SDS011;37611;51.794;21.590;2023-08-21T09:55:03;8.10;;;7.30;;
51525;SDS011;37611;51.794;21.590;2023-08-21T09:59:16;8.30;;;7.60;;
51525;SDS011;37611;51.794;21.590;2023-08-21T10:03:26;9.00;;;8.10;;
51525;SDS011;37611;51.794;21.590;2023-08-21T10:07:59;8.10;;;7.40;;
51525;SDS011;37611;51.794;21.590;2023-08-21T10:12:13;8.40;;;7.50;;
51525;SDS011;37611;51.794;21.590;2023-08-21T10:16:23;7.80;;;7.10;;
51525;SDS011;37611;51.794;21.590;2023-08-21T10:20:26;7.90;;;7.20;;
51525;SDS011;37611;51.794;21.590;2023-08-21T10:24:28;7.70;;;6.90;;
51525;SDS011;37611;51.794;21.590;2023-08-21T10:29:08;7.90;;;7.30;;
51525;SDS011;37611;51.794;21.590;2023-08-21T10:33:04;8.30;;;7.50;;
51525;SDS011;37611;51.794;21.590;2023-08-21T10:37:09;8.60;;;7.50;;
51525;SDS011;37611;51.794;21.590;2023-08-21T10:41:14;8.20;;;7.50;;
51525;SDS011;37611;51.794;21.590;2023-08-21T10:45:18;7.90;;;7.00;;
51525;SDS011;37611;51.794;21.590;2023-08-21T10:49:20;8.70;;;7.90;;
51525;SDS011;37611;51.794;21.590;2023-08-21T10:53:22;8.10;;;7.30;;
51525;SDS011;37611;51.794;21.590;2023-08-21T10:57:26;8.20;;;7.40;;
51525;SDS011;37611;51.794;21.590;2023-08-21T11:01:44;8.30;;;7.60;;
51525;SDS011;37611;51.794;21.590;2023-08-21T11:05:59;8.60;;;7.90;;
51525;SDS011;37611;51.794;21.590;2023-08-21T11:10:02;8.00;;;7.00;;
51525;SDS011;37611;51.794;21.590;2023-08-21T11:14:04;7.70;;;6.60;;
51525;SDS011;37611;51.794;21.590;2023-08-21T11:18:06;6.20;;;5.70;;
51525;SDS011;37611;51.794;21.590;2023-08-21T11:22:08;7.00;;;6.30;;
51525;SDS011;37611;51.794;21.590;2023-08-21T11:26:10;6.60;;;5.90;;
51525;SDS011;37611;51.794;21.590;2023-08-21T11:30:13;6.00;;;5.60;;
51525;SDS011;37611;51.794;21.590;2023-08-21T11:34:18;5.90;;;5.30;;
51525;SDS011;37611;51.794;21.590;2023-08-21T11:38:21;9.90;;;5.40;;
51525;SDS011;37611;51.794;21.590;2023-08-21T11:42:31;7.10;;;5.60;;
51525;SDS011;37611;51.794;21.590;2023-08-21T11:46:33;7.10;;;6.10;;
51525;SDS011;37611;51.794;21.590;2023-08-21T11:50:36;6.10;;;5.60;;
51525;SDS011;37611;51.794;21.590;2023-08-21T11:54:39;6.50;;;5.60;;
51525;SDS011;37611;51.794;21.590;2023-08-21T11:58:43;6.00;;;5.50;;
51525;SDS011;37611;51.794;21.590;2023-08-21T12:02:54;6.00;;;5.40;;
51525;SDS011;37611;51.794;21.590;2023-08-21T12:06:59;6.40;;;5.80;;
51525;SDS011;37611;51.794;21.590;2023-08-21T12:11:00;6.50;;;5.70;;
51525;SDS011;37611;51.794;21.590;2023-08-21T12:15:03;6.50;;;5.80;;
51525;SDS011;37611;51.794;21.590;2023-08-21T12:19:04;6.00;;;5.50;;
51525;SDS011;37611;51.794;21.590;2023-08-21T12:23:09;6.60;;;6.00;;
51525;SDS011;37611;51.794;21.590;2023-08-21T12:27:11;6.50;;;5.90;;
51525;SDS011;37611;51.794;21.590;2023-08-21T12:31:13;6.40;;;5.70;;
51525;SDS011;37611;51.794;21.590;2023-08-21T12:35:15;6.70;;;5.70;;
51525;SDS011;37611;51.794;21.590;2023-08-21T12:39:17;6.20;;;5.60;;
51525;SDS011;37611;51.794;21.590;2023-08-21T12:43:19;8.20;;;5.80;;
51525;SDS011;37611;51.794;21.590;2023-08-21T12:47:20;6.10;;;5.30;;
51525;SDS011;37611;51.794;21.590;2023-08-21T12:51:22;6.00;;;5.00;;
51525;SDS011;37611;51.794;21.590;2023-08-21T12:55:24;4.90;;;4.40;;
51525;SDS011;37611;51.794;21.590;2023-08-21T12:59:26;5.30;;;4.50;;
51525;SDS011;37611;51.794;21.590;2023-08-21T13:03:28;5.80;;;4.80;;
51525;SDS011;37611;51.794;21.590;2023-08-21T13:07:30;4.40;;;4.00;;
51525;SDS011;37611;51.794;21.590;2023-08-21T13:11:32;3.50;;;3.20;;
51525;SDS011;37611;51.794;21.590;2023-08-21T13:15:34;3.50;;;3.20;;
51525;SDS011;37611;51.794;21.590;2023-08-21T13:19:36;3.10;;;2.80;;
51525;SDS011;37611;51.794;21.590;2023-08-21T13:23:37;4.40;;;2.30;;
51525;SDS011;37611;51.794;21.590;2023-08-21T13:27:39;2.80;;;2.50;;
51525;SDS011;37611;51.794;21.590;2023-08-21T13:31:41;3.70;;;2.10;;
51525;SDS011;37611;51.794;21.590;2023-08-21T13:35:43;3.00;;;2.40;;
51525;SDS011;37611;51.794;21.590;2023-08-21T13:39:45;2.60;;;2.30;;
51525;SDS011;37611;51.794;21.590;2023-08-21T13:43:47;2.30;;;2.10;;
51525;SDS011;37611;51.794;21.590;2023-08-21T13:47:49;2.90;;;2.50;;
51525;SDS011;37611;51.794;21.590;2023-08-21T13:51:50;3.10;;;2.80;;
51525;SDS011;37611;51.794;21.590;2023-08-21T13:55:52;3.60;;;2.80;;
51525;SDS011;37611;51.794;21.590;2023-08-21T13:59:54;2.70;;;2.50;;
51525;SDS011;37611;51.794;21.590;2023-08-21T14:03:56;3.00;;;2.70;;
51525;SDS011;37611;51.794;21.590;2023-08-21T14:07:57;3.20;;;2.80;;
51525;SDS011;37611;51.794;21.590;2023-08-21T14:12:00;5.90;;;3.00;;
51525;SDS011;37611;51.794;21.590;2023-08-21T14:16:02;4.30;;;2.80;;
51525;SDS011;37611;51.794;21.590;2023-08-21T14:20:04;5.80;;;3.40;;
51525;SDS011;37611;51.794;21.590;2023-08-21T14:24:08;3.30;;;3.00;;
51525;SDS011;37611;51.794;21.590;2023-08-21T14:28:10;3.70;;;3.10;;
51525;SDS011;37611;51.794;21.590;2023-08-21T14:32:12;3.80;;;3.50;;
51525;SDS011;37611;51.794;21.590;2023-08-21T14:36:22;3.60;;;3.20;;
51525;SDS011;37611;51.794;21.590;2023-08-21T14:40:24;3.80;;;3.20;;
51525;SDS011;37611;51.794;21.590;2023-08-21T14:44:26;4.50;;;3.90;;
51525;SDS011;37611;51.794;21.590;2023-08-21T14:48:33;4.80;;;2.80;;
51525;SDS011;37611;51.794;21.590;2023-08-21T14:52:38;3.60;;;3.20;;
51525;SDS011;37611;51.794;21.590;2023-08-21T14:56:39;6.80;;;3.10;;
51525;SDS011;37611;51.794;21.590;2023-08-21T15:00:42;242.60;;;28.90;;
51525;SDS011;37611;51.794;21.590;2023-08-21T15:04:44;9.00;;;3.30;;
51525;SDS011;37611;51.794;21.590;2023-08-21T15:08:46;9.10;;;3.70;;
51525;SDS011;37611;51.794;21.590;2023-08-21T15:12:48;5.10;;;2.90;;
51525;SDS011;37611;51.794;21.590;2023-08-21T15:16:57;7.10;;;2.80;;
51525;SDS011;37611;51.794;21.590;2023-08-21T15:21:10;5.10;;;2.70;;
51525;SDS011;37611;51.794;21.590;2023-08-21T15:25:32;5.00;;;2.70;;
51525;SDS011;37611;51.794;21.590;2023-08-21T15:30:08;5.80;;;2.40;;
51525;SDS011;37611;51.794;21.590;2023-08-21T15:34:09;3.60;;;2.30;;
51525;SDS011;37611;51.794;21.590;2023-08-21T15:38:20;3.90;;;2.60;;
51525;SDS011;37611;51.794;21.590;2023-08-21T15:42:22;12.90;;;3.50;;
51525;SDS011;37611;51.794;21.590;2023-08-21T15:46:24;5.30;;;2.30;;
51525;SDS011;37611;51.794;21.590;2023-08-21T15:50:26;4.70;;;2.40;;
51525;SDS011;37611;51.794;21.590;2023-08-21T15:54:31;4.10;;;2.50;;
51525;SDS011;37611;51.794;21.590;2023-08-21T15:58:34;7.10;;;2.50;;
51525;SDS011;37611;51.794;21.590;2023-08-21T16:02:36;6.50;;;2.40;;
51525;SDS011;37611;51.794;21.590;2023-08-21T16:06:46;4.50;;;2.20;;
51525;SDS011;37611;51.794;21.590;2023-08-21T16:10:59;3.90;;;2.30;;
51525;SDS011;37611;51.794;21.590;2023-08-21T16:15:13;3.40;;;1.90;;
51525;SDS011;37611;51.794;21.590;2023-08-21T16:19:36;2.90;;;2.20;;
51525;SDS011;37611;51.794;21.590;2023-08-21T16:23:37;4.90;;;2.20;;
51525;SDS011;37611;51.794;21.590;2023-08-21T16:37:11;3.60;;;2.00;;
51525;SDS011;37611;51.794;21.590;2023-08-21T16:41:32;5.80;;;2.00;;
51525;SDS011;37611;51.794;21.590;2023-08-21T16:45:37;5.40;;;2.00;;
51525;SDS011;37611;51.794;21.590;2023-08-21T16:54:18;8.10;;;2.20;;
51525;SDS011;37611;51.794;21.590;2023-08-21T16:58:41;3.60;;;2.50;;
51525;SDS011;37611;51.794;21.590;2023-08-21T17:02:55;4.70;;;2.40;;
51525;SDS011;37611;51.794;21.590;2023-08-21T17:06:57;4.90;;;2.40;;
51525;SDS011;37611;51.794;21.590;2023-08-21T17:10:59;7.00;;;2.80;;
51525;SDS011;37611;51.794;21.590;2023-08-21T17:15:04;4.20;;;2.30;;
51525;SDS011;37611;51.794;21.590;2023-08-21T17:19:10;2.30;;;2.00;;
51525;SDS011;37611;51.794;21.590;2023-08-21T17:23:12;3.60;;;2.00;;
51525;SDS011;37611;51.794;21.590;2023-08-21T17:27:14;4.30;;;2.80;;
51525;SDS011;37611;51.794;21.590;2023-08-21T17:31:19;6.00;;;2.50;;
51525;SDS011;37611;51.794;21.590;2023-08-21T17:35:22;5.00;;;2.90;;
51525;SDS011;37611;51.794;21.590;2023-08-21T17:39:24;4.90;;;2.70;;
51525;SDS011;37611;51.794;21.590;2023-08-21T17:43:36;5.40;;;2.40;;
51525;SDS011;37611;51.794;21.590;2023-08-21T17:47:50;4.60;;;2.80;;
51525;SDS011;37611;51.794;21.590;2023-08-21T17:51:55;7.20;;;2.90;;
51525;SDS011;37611;51.794;21.590;2023-08-21T17:55:57;6.20;;;3.00;;
51525;SDS011;37611;51.794;21.590;2023-08-21T18:00:05;3.90;;;3.00;;
51525;SDS011;37611;51.794;21.590;2023-08-21T18:04:13;5.30;;;3.30;;
51525;SDS011;37611;51.794;21.590;2023-08-21T18:08:25;20.50;;;8.60;;
51525;SDS011;37611;51.794;21.590;2023-08-21T18:12:48;13.90;;;7.20;;
51525;SDS011;37611;51.794;21.590;2023-08-21T18:17:03;12.30;;;6.30;;
51525;SDS011;37611;51.794;21.590;2023-08-21T18:21:14;14.50;;;9.40;;
51525;SDS011;37611;51.794;21.590;2023-08-21T18:25:29;16.10;;;7.40;;
51525;SDS011;37611;51.794;21.590;2023-08-21T18:29:40;10.10;;;5.70;;
51525;SDS011;37611;51.794;21.590;2023-08-21T18:33:47;6.70;;;4.80;;
51525;SDS011;37611;51.794;21.590;2023-08-21T18:42:29;5.10;;;4.60;;
51525;SDS011;37611;51.794;21.590;2023-08-21T18:47:03;5.80;;;4.90;;
